sensor_id;sensor_type;location;lat;lon;timestamp;P1;durP1;ratioP1;P2;durP2;ratioP2
63394;SDS011;49531;-34.520;150.798;2022-12-29T00:01:35;1.10;;;0.90;;
63394;SDS011;49531;-34.520;150.798;2022-12-29T00:04:03;2.03;;;0.90;;
63394;SDS011;49531;-34.520;150.798;2022-12-29T00:06:31;1.30;;;0.90;;
63394;SDS011;49531;-34.520;150.798;2022-12-29T00:08:58;2.70;;;0.90;;
63394;SDS011;49531;-34.520;150.798;2022-12-29T00:11:26;1.80;;;0.80;;
63394;SDS011;49531;-34.520;150.798;2022-12-29T00:13:54;1.98;;;1.00;;
63394;SDS011;49531;-34.520;150.798;2022-12-29T00:16:33;3.33;;;1.00;;
63394;SDS011;49531;-34.520;150.798;2022-12-29T00:19:02;1.77;;;0.90;;
63394;SDS011;49531;-34.520;150.798;2022-12-29T00:21:30;2.20;;;1.00;;
63394;SDS011;49531;-34.520;150.798;2022-12-29T00:24:12;2.85;;;1.20;;
63394;SDS011;49531;-34.520;150.798;2022-12-29T00:27:03;1.48;;;1.08;;
63394;SDS011;49531;-34.520;150.798;2022-12-29T00:29:48;3.67;;;1.40;;
63394;SDS011;49531;-34.520;150.798;2022-12-29T00:32:27;2.40;;;1.20;;
63394;SDS011;49531;-34.520;150.798;2022-12-29T00:35:08;4.35;;;1.65;;
63394;SDS011;49531;-34.520;150.798;2022-12-29T00:37:40;4.03;;;1.55;;
63394;SDS011;49531;-34.520;150.798;2022-12-29T00:40:21;2.88;;;1.50;;
63394;SDS011;49531;-34.520;150.798;2022-12-29T00:43:00;2.92;;;1.50;;
63394;SDS011;49531;-34.520;150.798;2022-12-29T00:45:40;3.83;;;1.67;;
63394;SDS011;49531;-34.520;150.798;2022-12-29T00:48:07;3.22;;;1.60;;
63394;SDS011;49531;-34.520;150.798;2022-12-29T00:50:34;4.60;;;1.77;;
63394;SDS011;49531;-34.520;150.798;2022-12-29T00:53:03;5.03;;;1.80;;
63394;SDS011;49531;-34.520;150.798;2022-12-29T00:55:30;4.75;;;1.77;;
63394;SDS011;49531;-34.520;150.798;2022-12-29T00:57:57;3.83;;;1.77;;
63394;SDS011;49531;-34.520;150.798;2022-12-29T01:00:24;6.28;;;1.90;;
63394;SDS011;49531;-34.520;150.798;2022-12-29T01:02:51;3.90;;;1.70;;
63394;SDS011;49531;-34.520;150.798;2022-12-29T01:05:18;5.57;;;2.00;;
63394;SDS011;49531;-34.520;150.798;2022-12-29T01:07:45;4.68;;;1.83;;
63394;SDS011;49531;-34.520;150.798;2022-12-29T01:10:12;4.55;;;1.88;;
63394;SDS011;49531;-34.520;150.798;2022-12-29T01:12:40;4.78;;;1.60;;
63394;SDS011;49531;-34.520;150.798;2022-12-29T01:15:08;3.70;;;1.55;;
63394;SDS011;49531;-34.520;150.798;2022-12-29T01:17:36;5.18;;;1.50;;
63394;SDS011;49531;-34.520;150.798;2022-12-29T01:20:04;5.63;;;1.40;;
63394;SDS011;49531;-34.520;150.798;2022-12-29T01:22:31;2.42;;;1.40;;
63394;SDS011;49531;-34.520;150.798;2022-12-29T01:24:59;1.95;;;1.30;;
63394;SDS011;49531;-34.520;150.798;2022-12-29T01:27:26;4.05;;;1.30;;
63394;SDS011;49531;-34.520;150.798;2022-12-29T01:29:54;6.55;;;1.60;;
63394;SDS011;49531;-34.520;150.798;2022-12-29T01:32:21;2.30;;;1.30;;
63394;SDS011;49531;-34.520;150.798;2022-12-29T01:34:48;2.53;;;1.40;;
63394;SDS011;49531;-34.520;150.798;2022-12-29T01:37:15;3.55;;;1.45;;
63394;SDS011;49531;-34.520;150.798;2022-12-29T01:39:42;3.65;;;1.50;;
63394;SDS011;49531;-34.520;150.798;2022-12-29T01:42:16;5.82;;;1.50;;
63394;SDS011;49531;-34.520;150.798;2022-12-29T01:44:48;3.50;;;1.38;;
63394;SDS011;49531;-34.520;150.798;2022-12-29T01:47:32;2.97;;;1.40;;
63394;SDS011;49531;-34.520;150.798;2022-12-29T01:50:09;3.00;;;1.50;;
63394;SDS011;49531;-34.520;150.798;2022-12-29T01:52:43;3.40;;;1.48;;
63394;SDS011;49531;-34.520;150.798;2022-12-29T01:55:21;3.13;;;1.40;;
63394;SDS011;49531;-34.520;150.798;2022-12-29T01:57:49;2.40;;;1.35;;
63394;SDS011;49531;-34.520;150.798;2022-12-29T02:00:18;4.20;;;1.45;;
63394;SDS011;49531;-34.520;150.798;2022-12-29T02:02:47;4.53;;;1.42;;
63394;SDS011;49531;-34.520;150.798;2022-12-29T02:05:25;2.85;;;1.52;;
63394;SDS011;49531;-34.520;150.798;2022-12-29T02:08:04;3.60;;;1.48;;
63394;SDS011;49531;-34.520;150.798;2022-12-29T02:10:32;4.05;;;1.30;;
63394;SDS011;49531;-34.520;150.798;2022-12-29T02:13:01;3.90;;;1.40;;
63394;SDS011;49531;-34.520;150.798;2022-12-29T02:15:34;4.90;;;1.50;;
63394;SDS011;49531;-34.520;150.798;2022-12-29T02:18:25;3.63;;;1.55;;
63394;SDS011;49531;-34.520;150.798;2022-12-29T02:24:10;3.25;;;1.42;;
63394;SDS011;49531;-34.520;150.798;2022-12-29T02:30:06;3.45;;;1.30;;
63394;SDS011;49531;-34.520;150.798;2022-12-29T02:35:44;4.03;;;1.67;;
63394;SDS011;49531;-34.520;150.798;2022-12-29T02:41:21;5.13;;;1.70;;
63394;SDS011;49531;-34.520;150.798;2022-12-29T02:44:03;4.28;;;1.40;;
63394;SDS011;49531;-34.520;150.798;2022-12-29T02:46:47;3.38;;;1.60;;
63394;SDS011;49531;-34.520;150.798;2022-12-29T02:49:22;4.88;;;1.83;;
63394;SDS011;49531;-34.520;150.798;2022-12-29T02:52:05;3.13;;;1.60;;
63394;SDS011;49531;-34.520;150.798;2022-12-29T02:54:38;6.38;;;1.60;;
63394;SDS011;49531;-34.520;150.798;2022-12-29T02:57:15;3.83;;;1.55;;
63394;SDS011;49531;-34.520;150.798;2022-12-29T03:00:00;3.78;;;1.48;;
63394;SDS011;49531;-34.520;150.798;2022-12-29T03:02:58;4.88;;;1.60;;
63394;SDS011;49531;-34.520;150.798;2022-12-29T03:05:41;3.33;;;1.40;;
63394;SDS011;49531;-34.520;150.798;2022-12-29T03:08:37;6.25;;;1.73;;
63394;SDS011;49531;-34.520;150.798;2022-12-29T03:11:15;4.18;;;1.75;;
63394;SDS011;49531;-34.520;150.798;2022-12-29T03:13:56;5.18;;;1.60;;
63394;SDS011;49531;-34.520;150.798;2022-12-29T03:16:45;4.75;;;2.00;;
63394;SDS011;49531;-34.520;150.798;2022-12-29T03:19:19;3.35;;;1.70;;
63394;SDS011;49531;-34.520;150.798;2022-12-29T03:21:54;5.80;;;1.90;;
63394;SDS011;49531;-34.520;150.798;2022-12-29T03:24:40;3.25;;;2.00;;
63394;SDS011;49531;-34.520;150.798;2022-12-29T03:27:13;16.65;;;2.20;;
63394;SDS011;49531;-34.520;150.798;2022-12-29T03:29:47;5.25;;;2.10;;
63394;SDS011;49531;-34.520;150.798;2022-12-29T03:32:22;5.07;;;1.83;;
63394;SDS011;49531;-34.520;150.798;2022-12-29T03:34:52;5.07;;;1.97;;
63394;SDS011;49531;-34.520;150.798;2022-12-29T03:37:22;5.50;;;1.92;;
63394;SDS011;49531;-34.520;150.798;2022-12-29T03:39:55;13.50;;;2.10;;
63394;SDS011;49531;-34.520;150.798;2022-12-29T03:42:23;9.63;;;2.30;;
63394;SDS011;49531;-34.520;150.798;2022-12-29T03:44:54;13.70;;;2.40;;
63394;SDS011;49531;-34.520;150.798;2022-12-29T03:47:23;12.45;;;2.30;;
63394;SDS011;49531;-34.520;150.798;2022-12-29T03:49:50;9.70;;;1.95;;
63394;SDS011;49531;-34.520;150.798;2022-12-29T03:52:18;6.15;;;1.88;;
63394;SDS011;49531;-34.520;150.798;2022-12-29T03:54:45;5.10;;;1.90;;
63394;SDS011;49531;-34.520;150.798;2022-12-29T03:57:13;5.07;;;2.00;;
63394;SDS011;49531;-34.520;150.798;2022-12-29T03:59:40;6.97;;;1.98;;
63394;SDS011;49531;-34.520;150.798;2022-12-29T04:02:07;6.80;;;1.85;;
63394;SDS011;49531;-34.520;150.798;2022-12-29T04:04:34;52.47;;;3.53;;
63394;SDS011;49531;-34.520;150.798;2022-12-29T04:07:01;27.98;;;2.47;;
63394;SDS011;49531;-34.520;150.798;2022-12-29T04:09:28;13.90;;;2.30;;
63394;SDS011;49531;-34.520;150.798;2022-12-29T04:11:56;9.00;;;2.17;;
63394;SDS011;49531;-34.520;150.798;2022-12-29T04:14:23;10.70;;;2.00;;
63394;SDS011;49531;-34.520;150.798;2022-12-29T04:16:50;11.40;;;2.17;;
63394;SDS011;49531;-34.520;150.798;2022-12-29T04:19:17;8.02;;;1.95;;
63394;SDS011;49531;-34.520;150.798;2022-12-29T04:21:44;4.95;;;1.85;;
63394;SDS011;49531;-34.520;150.798;2022-12-29T04:24:12;4.03;;;1.73;;
63394;SDS011;49531;-34.520;150.798;2022-12-29T04:26:39;5.40;;;2.20;;
63394;SDS011;49531;-34.520;150.798;2022-12-29T04:29:07;4.22;;;1.90;;
63394;SDS011;49531;-34.520;150.798;2022-12-29T04:31:34;5.70;;;1.95;;
63394;SDS011;49531;-34.520;150.798;2022-12-29T04:34:01;5.30;;;1.95;;
63394;SDS011;49531;-34.520;150.798;2022-12-29T04:36:28;4.90;;;1.83;;
63394;SDS011;49531;-34.520;150.798;2022-12-29T04:38:56;4.32;;;2.03;;
63394;SDS011;49531;-34.520;150.798;2022-12-29T04:41:23;4.53;;;1.75;;
63394;SDS011;49531;-34.520;150.798;2022-12-29T04:43:50;7.03;;;1.83;;
63394;SDS011;49531;-34.520;150.798;2022-12-29T04:46:17;10.43;;;2.30;;
63394;SDS011;49531;-34.520;150.798;2022-12-29T04:48:44;6.07;;;1.85;;
63394;SDS011;49531;-34.520;150.798;2022-12-29T04:51:11;6.40;;;1.73;;
63394;SDS011;49531;-34.520;150.798;2022-12-29T04:53:39;5.60;;;1.50;;
63394;SDS011;49531;-34.520;150.798;2022-12-29T04:56:06;5.38;;;1.80;;
63394;SDS011;49531;-34.520;150.798;2022-12-29T04:58:33;4.22;;;1.60;;
63394;SDS011;49531;-34.520;150.798;2022-12-29T05:01:01;3.70;;;1.40;;
63394;SDS011;49531;-34.520;150.798;2022-12-29T05:03:28;3.67;;;1.40;;
63394;SDS011;49531;-34.520;150.798;2022-12-29T05:05:56;3.42;;;1.60;;
63394;SDS011;49531;-34.520;150.798;2022-12-29T05:08:23;6.85;;;1.50;;
63394;SDS011;49531;-34.520;150.798;2022-12-29T05:10:50;3.15;;;1.40;;
63394;SDS011;49531;-34.520;150.798;2022-12-29T05:13:18;3.63;;;1.50;;
63394;SDS011;49531;-34.520;150.798;2022-12-29T05:15:50;2.65;;;1.38;;
63394;SDS011;49531;-34.520;150.798;2022-12-29T05:18:18;4.22;;;1.58;;
63394;SDS011;49531;-34.520;150.798;2022-12-29T05:20:45;3.15;;;1.48;;
63394;SDS011;49531;-34.520;150.798;2022-12-29T05:23:13;3.35;;;1.42;;
63394;SDS011;49531;-34.520;150.798;2022-12-29T05:25:41;4.45;;;1.45;;
63394;SDS011;49531;-34.520;150.798;2022-12-29T05:28:10;4.80;;;1.50;;
63394;SDS011;49531;-34.520;150.798;2022-12-29T05:30:37;4.30;;;1.88;;
63394;SDS011;49531;-34.520;150.798;2022-12-29T05:33:06;5.97;;;1.65;;
63394;SDS011;49531;-34.520;150.798;2022-12-29T05:35:33;4.38;;;1.50;;
63394;SDS011;49531;-34.520;150.798;2022-12-29T05:38:00;8.05;;;1.70;;
63394;SDS011;49531;-34.520;150.798;2022-12-29T05:40:27;4.97;;;1.60;;
63394;SDS011;49531;-34.520;150.798;2022-12-29T05:42:54;5.22;;;1.60;;
63394;SDS011;49531;-34.520;150.798;2022-12-29T05:45:21;4.93;;;1.55;;
63394;SDS011;49531;-34.520;150.798;2022-12-29T05:47:48;5.05;;;1.60;;
63394;SDS011;49531;-34.520;150.798;2022-12-29T05:50:15;4.40;;;1.58;;
63394;SDS011;49531;-34.520;150.798;2022-12-29T05:52:42;3.05;;;1.40;;
63394;SDS011;49531;-34.520;150.798;2022-12-29T05:55:10;3.72;;;1.50;;
63394;SDS011;49531;-34.520;150.798;2022-12-29T05:57:37;2.83;;;1.40;;
63394;SDS011;49531;-34.520;150.798;2022-12-29T06:00:05;2.72;;;1.38;;
63394;SDS011;49531;-34.520;150.798;2022-12-29T06:02:33;4.03;;;1.40;;
63394;SDS011;49531;-34.520;150.798;2022-12-29T06:05:01;2.53;;;1.50;;
63394;SDS011;49531;-34.520;150.798;2022-12-29T06:07:28;3.05;;;1.52;;
63394;SDS011;49531;-34.520;150.798;2022-12-29T06:09:55;4.75;;;1.45;;
63394;SDS011;49531;-34.520;150.798;2022-12-29T06:12:22;4.22;;;1.60;;
63394;SDS011;49531;-34.520;150.798;2022-12-29T06:14:49;4.32;;;1.52;;
63394;SDS011;49531;-34.520;150.798;2022-12-29T06:17:16;4.57;;;1.55;;
63394;SDS011;49531;-34.520;150.798;2022-12-29T06:19:43;2.75;;;1.60;;
63394;SDS011;49531;-34.520;150.798;2022-12-29T06:22:10;4.57;;;1.85;;
63394;SDS011;49531;-34.520;150.798;2022-12-29T06:24:37;4.18;;;1.70;;
63394;SDS011;49531;-34.520;150.798;2022-12-29T06:27:05;2.95;;;1.60;;
63394;SDS011;49531;-34.520;150.798;2022-12-29T06:29:32;3.17;;;1.65;;
63394;SDS011;49531;-34.520;150.798;2022-12-29T06:32:00;2.72;;;1.60;;
63394;SDS011;49531;-34.520;150.798;2022-12-29T06:34:27;6.05;;;1.80;;
63394;SDS011;49531;-34.520;150.798;2022-12-29T06:36:55;5.63;;;1.90;;
63394;SDS011;49531;-34.520;150.798;2022-12-29T06:39:23;4.50;;;1.70;;
63394;SDS011;49531;-34.520;150.798;2022-12-29T06:41:53;4.65;;;1.80;;
63394;SDS011;49531;-34.520;150.798;2022-12-29T06:44:21;3.55;;;1.92;;
63394;SDS011;49531;-34.520;150.798;2022-12-29T06:46:48;5.50;;;2.30;;
63394;SDS011;49531;-34.520;150.798;2022-12-29T06:49:16;5.78;;;2.50;;
63394;SDS011;49531;-34.520;150.798;2022-12-29T06:51:44;5.18;;;2.17;;
63394;SDS011;49531;-34.520;150.798;2022-12-29T06:54:11;5.65;;;2.38;;
63394;SDS011;49531;-34.520;150.798;2022-12-29T06:56:38;4.90;;;2.40;;
63394;SDS011;49531;-34.520;150.798;2022-12-29T06:59:05;6.32;;;2.50;;
63394;SDS011;49531;-34.520;150.798;2022-12-29T07:01:32;3.58;;;2.03;;
63394;SDS011;49531;-34.520;150.798;2022-12-29T07:04:01;3.88;;;2.38;;
63394;SDS011;49531;-34.520;150.798;2022-12-29T07:06:29;5.03;;;2.17;;
63394;SDS011;49531;-34.520;150.798;2022-12-29T07:08:56;3.97;;;2.20;;
63394;SDS011;49531;-34.520;150.798;2022-12-29T07:11:24;5.32;;;2.22;;
63394;SDS011;49531;-34.520;150.798;2022-12-29T07:13:51;6.22;;;2.10;;
63394;SDS011;49531;-34.520;150.798;2022-12-29T07:16:18;4.00;;;2.10;;
63394;SDS011;49531;-34.520;150.798;2022-12-29T07:18:45;4.38;;;2.20;;
63394;SDS011;49531;-34.520;150.798;2022-12-29T07:21:12;5.85;;;2.10;;
63394;SDS011;49531;-34.520;150.798;2022-12-29T07:23:39;5.28;;;2.47;;
63394;SDS011;49531;-34.520;150.798;2022-12-29T07:26:07;4.60;;;2.30;;
63394;SDS011;49531;-34.520;150.798;2022-12-29T07:28:37;3.67;;;1.98;;
63394;SDS011;49531;-34.520;150.798;2022-12-29T07:31:05;4.13;;;2.15;;
63394;SDS011;49531;-34.520;150.798;2022-12-29T07:33:32;3.38;;;2.17;;
63394;SDS011;49531;-34.520;150.798;2022-12-29T07:35:59;3.97;;;2.28;;
63394;SDS011;49531;-34.520;150.798;2022-12-29T07:38:26;3.72;;;2.03;;
63394;SDS011;49531;-34.520;150.798;2022-12-29T07:40:57;8.55;;;2.10;;
63394;SDS011;49531;-34.520;150.798;2022-12-29T07:43:24;4.72;;;1.92;;
63394;SDS011;49531;-34.520;150.798;2022-12-29T07:45:52;3.53;;;2.10;;
63394;SDS011;49531;-34.520;150.798;2022-12-29T07:48:19;3.40;;;2.08;;
63394;SDS011;49531;-34.520;150.798;2022-12-29T07:50:47;4.80;;;2.10;;
63394;SDS011;49531;-34.520;150.798;2022-12-29T07:53:14;5.93;;;2.20;;
63394;SDS011;49531;-34.520;150.798;2022-12-29T07:55:41;4.47;;;2.10;;
63394;SDS011;49531;-34.520;150.798;2022-12-29T07:58:08;3.63;;;2.03;;
63394;SDS011;49531;-34.520;150.798;2022-12-29T08:00:35;3.20;;;1.85;;
63394;SDS011;49531;-34.520;150.798;2022-12-29T08:03:04;3.50;;;1.95;;
63394;SDS011;49531;-34.520;150.798;2022-12-29T08:05:32;4.03;;;2.10;;
63394;SDS011;49531;-34.520;150.798;2022-12-29T08:08:00;2.90;;;1.88;;
63394;SDS011;49531;-34.520;150.798;2022-12-29T08:10:27;5.43;;;2.00;;
63394;SDS011;49531;-34.520;150.798;2022-12-29T08:12:55;4.03;;;1.88;;
63394;SDS011;49531;-34.520;150.798;2022-12-29T08:15:22;3.47;;;2.00;;
63394;SDS011;49531;-34.520;150.798;2022-12-29T08:17:49;3.15;;;2.00;;
63394;SDS011;49531;-34.520;150.798;2022-12-29T08:20:16;4.20;;;2.10;;
63394;SDS011;49531;-34.520;150.798;2022-12-29T08:22:43;3.92;;;2.10;;
63394;SDS011;49531;-34.520;150.798;2022-12-29T08:25:10;5.53;;;2.20;;
63394;SDS011;49531;-34.520;150.798;2022-12-29T08:27:37;2.88;;;2.00;;
63394;SDS011;49531;-34.520;150.798;2022-12-29T08:30:04;4.88;;;2.20;;
63394;SDS011;49531;-34.520;150.798;2022-12-29T08:32:32;3.63;;;2.00;;
63394;SDS011;49531;-34.520;150.798;2022-12-29T08:34:59;4.13;;;2.13;;
63394;SDS011;49531;-34.520;150.798;2022-12-29T08:37:26;5.32;;;2.30;;
63394;SDS011;49531;-34.520;150.798;2022-12-29T08:39:53;5.00;;;2.63;;
63394;SDS011;49531;-34.520;150.798;2022-12-29T08:42:20;3.13;;;2.20;;
63394;SDS011;49531;-34.520;150.798;2022-12-29T08:44:48;3.92;;;2.50;;
63394;SDS011;49531;-34.520;150.798;2022-12-29T08:47:15;2.78;;;2.20;;
63394;SDS011;49531;-34.520;150.798;2022-12-29T08:49:42;3.50;;;2.30;;
63394;SDS011;49531;-34.520;150.798;2022-12-29T08:52:09;3.35;;;2.20;;
63394;SDS011;49531;-34.520;150.798;2022-12-29T08:54:36;3.33;;;2.20;;
63394;SDS011;49531;-34.520;150.798;2022-12-29T08:57:03;3.00;;;2.40;;
63394;SDS011;49531;-34.520;150.798;2022-12-29T08:59:30;3.00;;;2.13;;
63394;SDS011;49531;-34.520;150.798;2022-12-29T09:01:57;5.25;;;2.40;;
63394;SDS011;49531;-34.520;150.798;2022-12-29T09:04:25;3.70;;;2.20;;
63394;SDS011;49531;-34.520;150.798;2022-12-29T09:06:52;4.90;;;2.30;;
63394;SDS011;49531;-34.520;150.798;2022-12-29T09:09:20;3.60;;;2.10;;
63394;SDS011;49531;-34.520;150.798;2022-12-29T09:11:47;3.88;;;2.33;;
63394;SDS011;49531;-34.520;150.798;2022-12-29T09:14:14;4.53;;;2.40;;
63394;SDS011;49531;-34.520;150.798;2022-12-29T09:16:42;3.10;;;2.38;;
63394;SDS011;49531;-34.520;150.798;2022-12-29T09:19:21;4.25;;;2.40;;
63394;SDS011;49531;-34.520;150.798;2022-12-29T09:21:48;4.75;;;2.50;;
63394;SDS011;49531;-34.520;150.798;2022-12-29T09:24:15;4.47;;;2.40;;
63394;SDS011;49531;-34.520;150.798;2022-12-29T09:26:43;4.05;;;2.45;;
63394;SDS011;49531;-34.520;150.798;2022-12-29T09:29:10;5.55;;;2.50;;
63394;SDS011;49531;-34.520;150.798;2022-12-29T09:31:37;4.47;;;2.60;;
63394;SDS011;49531;-34.520;150.798;2022-12-29T09:34:04;5.57;;;2.70;;
63394;SDS011;49531;-34.520;150.798;2022-12-29T09:36:31;3.35;;;2.47;;
63394;SDS011;49531;-34.520;150.798;2022-12-29T09:38:58;5.28;;;2.80;;
63394;SDS011;49531;-34.520;150.798;2022-12-29T09:41:30;4.28;;;2.85;;
63394;SDS011;49531;-34.520;150.798;2022-12-29T09:44:07;4.47;;;3.03;;
63394;SDS011;49531;-34.520;150.798;2022-12-29T09:46:49;4.70;;;3.38;;
63394;SDS011;49531;-34.520;150.798;2022-12-29T09:49:23;4.22;;;3.00;;
63394;SDS011;49531;-34.520;150.798;2022-12-29T09:52:06;3.67;;;3.05;;
63394;SDS011;49531;-34.520;150.798;2022-12-29T09:54:51;4.72;;;3.35;;
63394;SDS011;49531;-34.520;150.798;2022-12-29T09:57:28;5.05;;;3.28;;
63394;SDS011;49531;-34.520;150.798;2022-12-29T10:00:11;4.05;;;3.25;;
63394;SDS011;49531;-34.520;150.798;2022-12-29T10:02:46;5.57;;;3.33;;
63394;SDS011;49531;-34.520;150.798;2022-12-29T10:05:23;5.35;;;3.60;;
63394;SDS011;49531;-34.520;150.798;2022-12-29T10:08:14;4.40;;;3.20;;
63394;SDS011;49531;-34.520;150.798;2022-12-29T10:10:54;5.05;;;3.35;;
63394;SDS011;49531;-34.520;150.798;2022-12-29T10:13:33;4.57;;;3.20;;
63394;SDS011;49531;-34.520;150.798;2022-12-29T10:16:26;4.07;;;3.50;;
63394;SDS011;49531;-34.520;150.798;2022-12-29T10:19:15;4.82;;;3.30;;
63394;SDS011;49531;-34.520;150.798;2022-12-29T10:21:59;5.47;;;3.42;;
63394;SDS011;49531;-34.520;150.798;2022-12-29T10:24:47;4.53;;;3.60;;
63394;SDS011;49531;-34.520;150.798;2022-12-29T10:27:17;5.25;;;3.47;;
63394;SDS011;49531;-34.520;150.798;2022-12-29T10:29:48;4.90;;;3.53;;
63394;SDS011;49531;-34.520;150.798;2022-12-29T10:32:26;4.20;;;3.47;;
63394;SDS011;49531;-34.520;150.798;2022-12-29T10:35:20;4.68;;;3.72;;
63394;SDS011;49531;-34.520;150.798;2022-12-29T10:40:49;4.55;;;3.47;;
63394;SDS011;49531;-34.520;150.798;2022-12-29T10:43:26;5.32;;;3.55;;
63394;SDS011;49531;-34.520;150.798;2022-12-29T10:45:56;5.10;;;3.78;;
63394;SDS011;49531;-34.520;150.798;2022-12-29T10:48:30;5.47;;;3.47;;
63394;SDS011;49531;-34.520;150.798;2022-12-29T10:51:00;5.07;;;3.63;;
63394;SDS011;49531;-34.520;150.798;2022-12-29T10:53:35;4.50;;;3.67;;
63394;SDS011;49531;-34.520;150.798;2022-12-29T10:56:09;7.30;;;3.63;;
63394;SDS011;49531;-34.520;150.798;2022-12-29T10:58:48;4.40;;;3.70;;
63394;SDS011;49531;-34.520;150.798;2022-12-29T11:01:16;4.63;;;3.50;;
63394;SDS011;49531;-34.520;150.798;2022-12-29T11:03:49;4.43;;;3.50;;
63394;SDS011;49531;-34.520;150.798;2022-12-29T11:06:26;4.55;;;3.47;;
63394;SDS011;49531;-34.520;150.798;2022-12-29T11:08:57;4.00;;;3.42;;
63394;SDS011;49531;-34.520;150.798;2022-12-29T11:11:32;5.22;;;3.58;;
63394;SDS011;49531;-34.520;150.798;2022-12-29T11:14:08;4.38;;;3.30;;
63394;SDS011;49531;-34.520;150.798;2022-12-29T11:16:39;5.78;;;3.45;;
63394;SDS011;49531;-34.520;150.798;2022-12-29T11:21:47;4.18;;;3.30;;
63394;SDS011;49531;-34.520;150.798;2022-12-29T11:24:20;5.07;;;3.28;;
63394;SDS011;49531;-34.520;150.798;2022-12-29T11:26:51;3.53;;;3.00;;
63394;SDS011;49531;-34.520;150.798;2022-12-29T11:29:24;3.20;;;2.90;;
63394;SDS011;49531;-34.520;150.798;2022-12-29T11:31:55;3.67;;;3.05;;
63394;SDS011;49531;-34.520;150.798;2022-12-29T11:34:25;3.33;;;3.00;;
63394;SDS011;49531;-34.520;150.798;2022-12-29T11:36:59;4.13;;;3.10;;
63394;SDS011;49531;-34.520;150.798;2022-12-29T11:39:32;5.70;;;3.15;;
63394;SDS011;49531;-34.520;150.798;2022-12-29T11:42:03;4.30;;;3.10;;
63394;SDS011;49531;-34.520;150.798;2022-12-29T11:44:36;3.78;;;3.05;;
63394;SDS011;49531;-34.520;150.798;2022-12-29T11:47:09;3.80;;;3.08;;
63394;SDS011;49531;-34.520;150.798;2022-12-29T11:49:49;4.40;;;3.08;;
63394;SDS011;49531;-34.520;150.798;2022-12-29T11:52:23;4.72;;;2.80;;
63394;SDS011;49531;-34.520;150.798;2022-12-29T11:54:54;4.38;;;2.90;;
63394;SDS011;49531;-34.520;150.798;2022-12-29T11:57:23;3.45;;;3.10;;
63394;SDS011;49531;-34.520;150.798;2022-12-29T11:59:52;4.22;;;2.95;;
63394;SDS011;49531;-34.520;150.798;2022-12-29T12:05:13;3.90;;;3.10;;
63394;SDS011;49531;-34.520;150.798;2022-12-29T12:07:52;3.72;;;3.10;;
63394;SDS011;49531;-34.520;150.798;2022-12-29T12:10:31;4.90;;;3.42;;
63394;SDS011;49531;-34.520;150.798;2022-12-29T12:13:15;4.07;;;3.15;;
63394;SDS011;49531;-34.520;150.798;2022-12-29T12:15:51;4.18;;;3.30;;
63394;SDS011;49531;-34.520;150.798;2022-12-29T12:18:30;4.72;;;3.20;;
63394;SDS011;49531;-34.520;150.798;2022-12-29T12:21:05;3.50;;;3.20;;
63394;SDS011;49531;-34.520;150.798;2022-12-29T12:23:45;4.30;;;3.15;;
63394;SDS011;49531;-34.520;150.798;2022-12-29T12:26:30;3.50;;;3.20;;
63394;SDS011;49531;-34.520;150.798;2022-12-29T12:29:07;4.50;;;3.45;;
63394;SDS011;49531;-34.520;150.798;2022-12-29T12:31:50;6.30;;;3.42;;
63394;SDS011;49531;-34.520;150.798;2022-12-29T12:34:24;4.75;;;3.50;;
63394;SDS011;49531;-34.520;150.798;2022-12-29T12:37:01;4.15;;;3.40;;
63394;SDS011;49531;-34.520;150.798;2022-12-29T12:45:55;3.90;;;3.42;;
63394;SDS011;49531;-34.520;150.798;2022-12-29T12:54:53;4.68;;;3.60;;
63394;SDS011;49531;-34.520;150.798;2022-12-29T13:00:33;4.10;;;3.70;;
63394;SDS011;49531;-34.520;150.798;2022-12-29T13:03:35;4.00;;;3.38;;
63394;SDS011;49531;-34.520;150.798;2022-12-29T13:06:33;4.80;;;3.35;;
63394;SDS011;49531;-34.520;150.798;2022-12-29T13:12:05;4.90;;;3.42;;
63394;SDS011;49531;-34.520;150.798;2022-12-29T13:14:49;5.35;;;3.75;;
63394;SDS011;49531;-34.520;150.798;2022-12-29T13:17:36;4.43;;;3.45;;
63394;SDS011;49531;-34.520;150.798;2022-12-29T13:20:20;4.07;;;3.65;;
63394;SDS011;49531;-34.520;150.798;2022-12-29T13:23:13;4.40;;;3.60;;
63394;SDS011;49531;-34.520;150.798;2022-12-29T13:26:05;4.82;;;3.72;;
63394;SDS011;49531;-34.520;150.798;2022-12-29T13:28:55;4.35;;;3.50;;
63394;SDS011;49531;-34.520;150.798;2022-12-29T13:31:37;4.57;;;3.40;;
63394;SDS011;49531;-34.520;150.798;2022-12-29T13:34:33;4.43;;;3.55;;
63394;SDS011;49531;-34.520;150.798;2022-12-29T13:37:20;3.95;;;3.22;;
63394;SDS011;49531;-34.520;150.798;2022-12-29T13:39:55;3.95;;;3.40;;
63394;SDS011;49531;-34.520;150.798;2022-12-29T13:42:27;3.67;;;3.33;;
63394;SDS011;49531;-34.520;150.798;2022-12-29T13:44:59;4.65;;;3.70;;
63394;SDS011;49531;-34.520;150.798;2022-12-29T13:47:33;3.72;;;3.33;;
63394;SDS011;49531;-34.520;150.798;2022-12-29T13:50:15;5.03;;;3.90;;
63394;SDS011;49531;-34.520;150.798;2022-12-29T13:53:01;3.70;;;3.40;;
63394;SDS011;49531;-34.520;150.798;2022-12-29T13:55:49;3.63;;;3.30;;
63394;SDS011;49531;-34.520;150.798;2022-12-29T13:58:30;4.68;;;3.60;;
63394;SDS011;49531;-34.520;150.798;2022-12-29T14:01:26;3.50;;;3.20;;
63394;SDS011;49531;-34.520;150.798;2022-12-29T14:04:08;4.38;;;3.38;;
63394;SDS011;49531;-34.520;150.798;2022-12-29T14:06:38;3.95;;;3.35;;
63394;SDS011;49531;-34.520;150.798;2022-12-29T14:11:58;4.13;;;3.55;;
63394;SDS011;49531;-34.520;150.798;2022-12-29T14:14:27;4.72;;;3.60;;
63394;SDS011;49531;-34.520;150.798;2022-12-29T14:17:08;4.25;;;3.38;;
63394;SDS011;49531;-34.520;150.798;2022-12-29T14:19:39;4.22;;;3.65;;
63394;SDS011;49531;-34.520;150.798;2022-12-29T14:22:09;4.50;;;3.53;;
63394;SDS011;49531;-34.520;150.798;2022-12-29T14:24:40;3.85;;;3.53;;
63394;SDS011;49531;-34.520;150.798;2022-12-29T14:30:31;4.75;;;3.58;;
63394;SDS011;49531;-34.520;150.798;2022-12-29T14:33:13;4.03;;;3.63;;
63394;SDS011;49531;-34.520;150.798;2022-12-29T14:35:42;4.10;;;3.70;;
63394;SDS011;49531;-34.520;150.798;2022-12-29T14:38:16;5.43;;;4.13;;
63394;SDS011;49531;-34.520;150.798;2022-12-29T14:40:46;4.15;;;3.70;;
63394;SDS011;49531;-34.520;150.798;2022-12-29T14:43:18;4.97;;;3.70;;
63394;SDS011;49531;-34.520;150.798;2022-12-29T14:45:53;4.75;;;3.80;;
63394;SDS011;49531;-34.520;150.798;2022-12-29T14:51:18;5.10;;;4.00;;
63394;SDS011;49531;-34.520;150.798;2022-12-29T14:53:52;4.97;;;3.70;;
63394;SDS011;49531;-34.520;150.798;2022-12-29T14:56:20;4.00;;;3.60;;
63394;SDS011;49531;-34.520;150.798;2022-12-29T14:58:59;4.55;;;4.00;;
63394;SDS011;49531;-34.520;150.798;2022-12-29T15:01:36;5.53;;;3.90;;
63394;SDS011;49531;-34.520;150.798;2022-12-29T15:04:17;4.72;;;3.85;;
63394;SDS011;49531;-34.520;150.798;2022-12-29T15:06:48;4.25;;;3.80;;
63394;SDS011;49531;-34.520;150.798;2022-12-29T15:09:24;4.30;;;3.90;;
63394;SDS011;49531;-34.520;150.798;2022-12-29T15:12:06;4.40;;;3.83;;
63394;SDS011;49531;-34.520;150.798;2022-12-29T15:14:49;4.93;;;3.28;;
63394;SDS011;49531;-34.520;150.798;2022-12-29T15:17:24;5.15;;;3.80;;
63394;SDS011;49531;-34.520;150.798;2022-12-29T15:19:57;4.18;;;3.50;;
63394;SDS011;49531;-34.520;150.798;2022-12-29T15:22:25;4.05;;;3.58;;
63394;SDS011;49531;-34.520;150.798;2022-12-29T15:24:53;3.75;;;3.33;;
63394;SDS011;49531;-34.520;150.798;2022-12-29T15:27:23;3.70;;;3.30;;